Terminal Aerodrome Forecast
Issued by NWS Lubbock, TX

Home | Current Version | Previous Version | Text Only | Print | Product List | Glossary On
Versions: 1 2 3 4 5 6 7 8 9 10 11 12 13 14 15 16
968
FTUS44 KLUB 300520
TAFLBB
TAF
KLBB 300520Z 3006/3106 08015G25KT P6SM FEW120 SCT250
     FM300900 15011KT P6SM SCT015
      TEMPO 3010/3014 BKN015
     FM301700 17011KT P6SM SCT070=

USA.gov is the U.S. government's official web portal to all federal, state and local government web resources and services.